الصفحة الرئيسية
METAR-TAF:

METAR-TAF

مطار :

Tennant Creek, أستراليا

دائرة عرض: 19-38-04S, خط طول: 134-11-00E, ارتفاع: 377 متر

مراقبة الطقس الحالي

تاريخ ووقت الإصدار 1ساعة و 9 دقيقة قبل الساعة 16:00UTC
ريح 13 عقدة من الشرق/الجنوب الشرقي
درجة الحرارة 22°درجة مئوية
الرطوبة 25%
ضغط 1016 hPa
الرؤية 10 كم أو أكثر

METAR: YTNK 221600Z AUTO 12013KT 9999 // NCD 22/01 Q1016

زمن: 02:39 (17:09 UTC)

توقعات

تاريخ ووقت الإصدار 5ساعات و 1 دقيقة قبل الساعة 12:08UTC
التوقعات صالحة من22 الساعة 14 UTC إلى 23 الساعة 02 UTC
ريح 10 عقدة من الشرق/الجنوب الشرقي
الرؤية 10 كم أو أكثر
الغيوم لا تقل 1500 م ولا وجود لمزنة ركامية السحاب الأسود
من 22 الساعة 2100 UTC
ريح 15 عقدة من الشرق/الجنوب الشرقي تتزايد حتى 25 عقدة
الرؤية 10 كم أو أكثر
الغيوم لا تقل 1500 م ولا وجود لمزنة ركامية السحاب الأسود

TAF: YTNK 221208Z 2214/2302 11010KT CAVOK FM222100 12015G25KT CAVOK

أرصاد الطقس والتوقعات من أكثر من 4000 مطار (تقارير الطقس للمطار METAR والتنبؤ بالطقس بالمطارTAF).

المحطات المتاحة هي النقط الصفراء والحمراء على الخريطة.

حرك المؤشر فوق النقطة لمعرفة اسم المحطة.

ثم انقر لمعرفة أرصاد وتوقعات الطقس.

لتغيير الخارطة: اضغط على الأزرار الخضراء مع رمز الصليب الأسود للتكبير. على الزر الأخضر مع شرطة للتصغير، أو على الأسهم الخضراء للخرائط المجاورة.


METAR-TAF: